sensor_id;sensor_type;location;lat;lon;timestamp;pressure;altitude;pressure_sealevel;temperature;humidity
29569;BME280;16501;51.462;14.346;2023-02-19T00:01:11;99990.81;;;6.94;100.00
29569;BME280;16501;51.462;14.346;2023-02-19T00:03:38;99985.56;;;6.96;100.00
29569;BME280;16501;51.462;14.346;2023-02-19T00:06:05;99986.47;;;6.93;100.00
29569;BME280;16501;51.462;14.346;2023-02-19T00:08:31;99950.44;;;6.77;100.00
29569;BME280;16501;51.462;14.346;2023-02-19T00:11:05;99965.69;;;6.85;100.00
29569;BME280;16501;51.462;14.346;2023-02-19T00:13:43;99951.28;;;6.87;100.00
29569;BME280;16501;51.462;14.346;2023-02-19T00:16:13;99984.19;;;7.01;100.00
29569;BME280;16501;51.462;14.346;2023-02-19T00:18:41;99967.81;;;6.81;100.00
29569;BME280;16501;51.462;14.346;2023-02-19T00:21:06;99985.81;;;6.89;100.00
29569;BME280;16501;51.462;14.346;2023-02-19T00:23:32;99996.97;;;6.89;100.00
29569;BME280;16501;51.462;14.346;2023-02-19T00:26:02;99971.69;;;6.61;100.00
29569;BME280;16501;51.462;14.346;2023-02-19T00:28:28;99970.59;;;6.59;100.00
29569;BME280;16501;51.462;14.346;2023-02-19T00:30:54;99985.25;;;6.72;100.00
29569;BME280;16501;51.462;14.346;2023-02-19T00:33:20;99978.69;;;6.66;100.00
29569;BME280;16501;51.462;14.346;2023-02-19T00:35:45;99994.38;;;6.73;100.00
29569;BME280;16501;51.462;14.346;2023-02-19T00:38:12;99982.56;;;6.69;100.00
29569;BME280;16501;51.462;14.346;2023-02-19T00:40:37;99970.28;;;6.57;100.00
29569;BME280;16501;51.462;14.346;2023-02-19T00:43:03;99970.78;;;6.65;100.00
29569;BME280;16501;51.462;14.346;2023-02-19T00:45:28;99987.13;;;6.75;100.00
29569;BME280;16501;51.462;14.346;2023-02-19T00:47:53;99971.81;;;6.58;100.00
29569;BME280;16501;51.462;14.346;2023-02-19T00:50:19;99992.56;;;6.79;100.00
29569;BME280;16501;51.462;14.346;2023-02-19T00:52:44;99949.66;;;6.54;100.00
29569;BME280;16501;51.462;14.346;2023-02-19T00:55:10;99985.31;;;6.82;100.00
29569;BME280;16501;51.462;14.346;2023-02-19T00:57:35;99957.97;;;6.67;100.00
29569;BME280;16501;51.462;14.346;2023-02-19T01:00:00;99971.97;;;6.76;100.00
29569;BME280;16501;51.462;14.346;2023-02-19T01:02:25;99973.41;;;6.81;100.00
29569;BME280;16501;51.462;14.346;2023-02-19T01:04:51;99970.94;;;6.83;100.00
29569;BME280;16501;51.462;14.346;2023-02-19T01:07:17;99976.50;;;6.83;100.00
29569;BME280;16501;51.462;14.346;2023-02-19T01:09:42;99946.97;;;6.64;100.00
29569;BME280;16501;51.462;14.346;2023-02-19T01:12:07;99951.09;;;6.59;100.00
29569;BME280;16501;51.462;14.346;2023-02-19T01:14:33;99974.28;;;6.78;100.00
29569;BME280;16501;51.462;14.346;2023-02-19T01:16:58;99956.16;;;6.73;100.00
29569;BME280;16501;51.462;14.346;2023-02-19T01:19:24;99941.56;;;6.69;100.00
29569;BME280;16501;51.462;14.346;2023-02-19T01:21:49;99959.13;;;6.79;100.00
29569;BME280;16501;51.462;14.346;2023-02-19T01:24:16;99957.44;;;6.82;100.00
29569;BME280;16501;51.462;14.346;2023-02-19T01:26:42;99927.91;;;6.62;100.00
29569;BME280;16501;51.462;14.346;2023-02-19T01:29:08;99965.22;;;6.87;100.00
29569;BME280;16501;51.462;14.346;2023-02-19T01:31:33;99966.56;;;6.82;100.00
29569;BME280;16501;51.462;14.346;2023-02-19T01:34:02;99927.47;;;6.64;100.00
29569;BME280;16501;51.462;14.346;2023-02-19T01:36:32;99938.41;;;6.80;100.00
29569;BME280;16501;51.462;14.346;2023-02-19T01:39:01;99919.78;;;6.77;100.00
29569;BME280;16501;51.462;14.346;2023-02-19T01:41:32;99910.47;;;6.71;100.00
29569;BME280;16501;51.462;14.346;2023-02-19T01:44:03;99914.81;;;6.72;100.00
29569;BME280;16501;51.462;14.346;2023-02-19T01:46:34;99912.09;;;6.59;100.00
29569;BME280;16501;51.462;14.346;2023-02-19T01:49:05;99898.31;;;6.55;100.00
29569;BME280;16501;51.462;14.346;2023-02-19T01:51:36;99907.56;;;6.74;100.00
29569;BME280;16501;51.462;14.346;2023-02-19T01:54:04;99901.41;;;6.79;100.00
29569;BME280;16501;51.462;14.346;2023-02-19T01:56:35;99910.53;;;6.80;100.00
29569;BME280;16501;51.462;14.346;2023-02-19T01:59:03;99910.53;;;6.80;100.00
29569;BME280;16501;51.462;14.346;2023-02-19T02:01:28;99897.50;;;6.77;100.00
29569;BME280;16501;51.462;14.346;2023-02-19T02:03:53;99852.44;;;6.47;100.00
29569;BME280;16501;51.462;14.346;2023-02-19T02:08:49;99897.09;;;6.88;100.00
29569;BME280;16501;51.462;14.346;2023-02-19T02:11:35;99891.84;;;6.90;100.00
29569;BME280;16501;51.462;14.346;2023-02-19T02:14:02;99885.81;;;6.91;100.00
29569;BME280;16501;51.462;14.346;2023-02-19T02:16:54;99870.88;;;6.76;100.00
29569;BME280;16501;51.462;14.346;2023-02-19T02:22:13;99874.94;;;6.84;100.00
29569;BME280;16501;51.462;14.346;2023-02-19T02:30:37;99875.13;;;6.90;100.00
29569;BME280;16501;51.462;14.346;2023-02-19T02:33:25;99858.56;;;6.86;100.00
29569;BME280;16501;51.462;14.346;2023-02-19T02:35:57;99868.75;;;6.89;100.00
29569;BME280;16501;51.462;14.346;2023-02-19T02:38:37;99859.16;;;6.81;100.00
29569;BME280;16501;51.462;14.346;2023-02-19T02:41:04;99876.03;;;6.87;100.00
29569;BME280;16501;51.462;14.346;2023-02-19T02:43:30;99861.94;;;6.81;100.00
29569;BME280;16501;51.462;14.346;2023-02-19T02:45:56;99844.50;;;6.68;100.00
29569;BME280;16501;51.462;14.346;2023-02-19T02:48:35;99862.88;;;6.87;100.00
29569;BME280;16501;51.462;14.346;2023-02-19T02:54:13;99847.66;;;6.79;100.00
29569;BME280;16501;51.462;14.346;2023-02-19T02:56:59;99800.94;;;6.52;100.00
29569;BME280;16501;51.462;14.346;2023-02-19T02:59:28;99816.78;;;6.64;100.00
29569;BME280;16501;51.462;14.346;2023-02-19T03:02:13;99825.97;;;6.74;100.00
29569;BME280;16501;51.462;14.346;2023-02-19T03:04:53;99810.13;;;6.61;100.00
29569;BME280;16501;51.462;14.346;2023-02-19T03:07:57;99774.16;;;6.45;100.00
29569;BME280;16501;51.462;14.346;2023-02-19T03:10:38;99812.16;;;6.70;100.00
29569;BME280;16501;51.462;14.346;2023-02-19T03:13:12;99793.84;;;6.60;100.00
29569;BME280;16501;51.462;14.346;2023-02-19T03:16:05;99797.16;;;6.68;100.00
29569;BME280;16501;51.462;14.346;2023-02-19T03:18:53;99798.06;;;6.65;100.00
29569;BME280;16501;51.462;14.346;2023-02-19T03:21:41;99750.22;;;6.26;100.00
29569;BME280;16501;51.462;14.346;2023-02-19T03:24:10;99777.19;;;6.38;100.00
29569;BME280;16501;51.462;14.346;2023-02-19T03:26:57;99803.31;;;6.63;100.00
29569;BME280;16501;51.462;14.346;2023-02-19T03:29:25;99804.25;;;6.69;100.00
29569;BME280;16501;51.462;14.346;2023-02-19T03:32:07;99769.06;;;6.53;100.00
29569;BME280;16501;51.462;14.346;2023-02-19T03:34:36;99774.97;;;6.55;100.00
29569;BME280;16501;51.462;14.346;2023-02-19T03:37:08;99766.41;;;6.49;100.00
29569;BME280;16501;51.462;14.346;2023-02-19T03:39:35;99787.53;;;6.69;100.00
29569;BME280;16501;51.462;14.346;2023-02-19T03:44:41;99785.09;;;6.71;100.00
29569;BME280;16501;51.462;14.346;2023-02-19T03:47:24;99774.09;;;6.67;100.00
29569;BME280;16501;51.462;14.346;2023-02-19T03:50:11;99775.94;;;6.70;100.00
29569;BME280;16501;51.462;14.346;2023-02-19T03:52:51;99777.19;;;6.69;100.00
29569;BME280;16501;51.462;14.346;2023-02-19T03:55:31;99748.16;;;6.48;100.00
29569;BME280;16501;51.462;14.346;2023-02-19T03:58:08;99777.50;;;6.71;100.00
29569;BME280;16501;51.462;14.346;2023-02-19T04:00:48;99766.34;;;6.62;100.00
29569;BME280;16501;51.462;14.346;2023-02-19T04:03:27;99784.44;;;6.67;100.00
29569;BME280;16501;51.462;14.346;2023-02-19T04:06:02;99770.81;;;6.69;100.00
29569;BME280;16501;51.462;14.346;2023-02-19T04:08:30;99764.34;;;6.72;100.00
29569;BME280;16501;51.462;14.346;2023-02-19T04:10:59;99751.31;;;6.59;100.00
29569;BME280;16501;51.462;14.346;2023-02-19T04:13:30;99772.69;;;6.72;100.00
29569;BME280;16501;51.462;14.346;2023-02-19T04:16:01;99738.38;;;6.44;100.00
29569;BME280;16501;51.462;14.346;2023-02-19T04:18:32;99768.38;;;6.71;100.00
29569;BME280;16501;51.462;14.346;2023-02-19T04:21:01;99761.88;;;6.74;100.00
29569;BME280;16501;51.462;14.346;2023-02-19T04:23:35;99745.88;;;6.56;100.00
29569;BME280;16501;51.462;14.346;2023-02-19T04:26:02;99778.59;;;6.74;100.00
29569;BME280;16501;51.462;14.346;2023-02-19T04:28:28;99761.09;;;6.73;100.00
29569;BME280;16501;51.462;14.346;2023-02-19T04:30:53;99772.41;;;6.70;100.00
29569;BME280;16501;51.462;14.346;2023-02-19T04:33:20;99768.31;;;6.61;100.00
29569;BME280;16501;51.462;14.346;2023-02-19T04:35:45;99760.56;;;6.56;100.00
29569;BME280;16501;51.462;14.346;2023-02-19T04:38:10;99744.13;;;6.49;100.00
29569;BME280;16501;51.462;14.346;2023-02-19T04:40:39;99739.66;;;6.52;100.00
29569;BME280;16501;51.462;14.346;2023-02-19T04:43:04;99757.31;;;6.58;100.00
29569;BME280;16501;51.462;14.346;2023-02-19T04:45:29;99759.66;;;6.59;100.00
29569;BME280;16501;51.462;14.346;2023-02-19T04:47:57;99756.88;;;6.59;100.00
29569;BME280;16501;51.462;14.346;2023-02-19T04:50:23;99759.97;;;6.61;100.00
29569;BME280;16501;51.462;14.346;2023-02-19T04:52:48;99759.19;;;6.61;100.00
29569;BME280;16501;51.462;14.346;2023-02-19T04:55:14;99745.09;;;6.55;100.00
29569;BME280;16501;51.462;14.346;2023-02-19T04:57:39;99705.47;;;6.20;100.00
29569;BME280;16501;51.462;14.346;2023-02-19T05:00:05;99741.88;;;6.57;100.00
29569;BME280;16501;51.462;14.346;2023-02-19T05:02:32;99750.38;;;6.63;100.00
29569;BME280;16501;51.462;14.346;2023-02-19T05:04:57;99733.69;;;6.63;100.00
29569;BME280;16501;51.462;14.346;2023-02-19T05:07:22;99703.09;;;6.40;100.00
29569;BME280;16501;51.462;14.346;2023-02-19T05:09:48;99699.53;;;6.40;100.00
29569;BME280;16501;51.462;14.346;2023-02-19T05:12:13;99732.09;;;6.61;100.00
29569;BME280;16501;51.462;14.346;2023-02-19T05:14:39;99730.72;;;6.57;100.00
29569;BME280;16501;51.462;14.346;2023-02-19T05:17:04;99731.97;;;6.65;100.00
29569;BME280;16501;51.462;14.346;2023-02-19T05:19:29;99696.06;;;6.27;100.00
29569;BME280;16501;51.462;14.346;2023-02-19T05:21:54;99754.75;;;6.64;100.00
29569;BME280;16501;51.462;14.346;2023-02-19T05:24:20;99765.97;;;6.51;100.00
29569;BME280;16501;51.462;14.346;2023-02-19T05:26:47;99720.91;;;6.12;100.00
29569;BME280;16501;51.462;14.346;2023-02-19T05:29:12;99757.91;;;6.21;100.00
29569;BME280;16501;51.462;14.346;2023-02-19T05:31:37;99763.34;;;6.25;100.00
29569;BME280;16501;51.462;14.346;2023-02-19T05:34:04;99767.19;;;6.18;100.00
29569;BME280;16501;51.462;14.346;2023-02-19T05:36:30;99775.78;;;6.11;100.00
29569;BME280;16501;51.462;14.346;2023-02-19T05:38:56;99769.00;;;6.12;100.00
29569;BME280;16501;51.462;14.346;2023-02-19T05:41:24;99751.13;;;5.78;100.00
29569;BME280;16501;51.462;14.346;2023-02-19T05:43:50;99766.25;;;5.77;100.00
29569;BME280;16501;51.462;14.346;2023-02-19T05:46:19;99764.94;;;5.69;100.00
29569;BME280;16501;51.462;14.346;2023-02-19T05:48:46;99754.63;;;5.70;100.00
29569;BME280;16501;51.462;14.346;2023-02-19T05:51:16;99761.53;;;5.65;100.00
29569;BME280;16501;51.462;14.346;2023-02-19T05:53:42;99776.50;;;5.45;100.00
29569;BME280;16501;51.462;14.346;2023-02-19T05:58:51;99760.38;;;4.93;100.00
29569;BME280;16501;51.462;14.346;2023-02-19T06:01:19;99810.63;;;4.98;100.00
29569;BME280;16501;51.462;14.346;2023-02-19T06:03:46;99805.81;;;4.86;100.00
29569;BME280;16501;51.462;14.346;2023-02-19T06:06:16;99816.28;;;4.82;100.00
29569;BME280;16501;51.462;14.346;2023-02-19T06:08:43;99809.91;;;4.68;100.00
29569;BME280;16501;51.462;14.346;2023-02-19T06:11:09;99807.81;;;4.60;100.00
29569;BME280;16501;51.462;14.346;2023-02-19T06:13:35;99833.81;;;4.66;100.00
29569;BME280;16501;51.462;14.346;2023-02-19T06:16:05;99841.94;;;4.73;100.00
29569;BME280;16501;51.462;14.346;2023-02-19T06:18:32;99849.94;;;4.58;100.00
29569;BME280;16501;51.462;14.346;2023-02-19T06:21:02;99862.91;;;4.61;100.00
29569;BME280;16501;51.462;14.346;2023-02-19T06:23:28;99853.78;;;4.48;100.00
29569;BME280;16501;51.462;14.346;2023-02-19T06:25:53;99876.00;;;4.48;100.00
29569;BME280;16501;51.462;14.346;2023-02-19T06:28:18;99881.44;;;4.51;100.00
29569;BME280;16501;51.462;14.346;2023-02-19T06:30:44;99777.91;;;3.83;100.00
29569;BME280;16501;51.462;14.346;2023-02-19T06:33:09;99886.31;;;4.47;100.00
29569;BME280;16501;51.462;14.346;2023-02-19T06:35:35;99863.19;;;4.38;100.00
29569;BME280;16501;51.462;14.346;2023-02-19T06:38:01;99895.53;;;4.44;100.00
29569;BME280;16501;51.462;14.346;2023-02-19T06:40:27;99903.88;;;4.44;100.00
29569;BME280;16501;51.462;14.346;2023-02-19T06:42:53;99911.59;;;4.37;100.00
29569;BME280;16501;51.462;14.346;2023-02-19T06:45:19;99906.78;;;4.24;100.00
29569;BME280;16501;51.462;14.346;2023-02-19T06:47:44;99896.75;;;4.14;100.00
29569;BME280;16501;51.462;14.346;2023-02-19T06:50:12;99922.41;;;4.18;100.00
29569;BME280;16501;51.462;14.346;2023-02-19T06:52:38;99912.53;;;4.17;100.00
29569;BME280;16501;51.462;14.346;2023-02-19T06:55:03;99851.56;;;3.84;100.00
29569;BME280;16501;51.462;14.346;2023-02-19T06:57:28;99922.22;;;4.25;100.00
29569;BME280;16501;51.462;14.346;2023-02-19T06:59:54;99897.66;;;3.94;100.00
29569;BME280;16501;51.462;14.346;2023-02-19T07:02:19;99928.66;;;4.06;100.00
29569;BME280;16501;51.462;14.346;2023-02-19T07:04:44;99943.00;;;4.04;100.00
29569;BME280;16501;51.462;14.346;2023-02-19T07:07:10;99915.09;;;3.62;100.00
29569;BME280;16501;51.462;14.346;2023-02-19T07:09:37;99925.34;;;3.49;100.00
29569;BME280;16501;51.462;14.346;2023-02-19T07:12:03;99964.25;;;3.78;100.00
29569;BME280;16501;51.462;14.346;2023-02-19T07:14:28;99956.69;;;3.78;100.00
29569;BME280;16501;51.462;14.346;2023-02-19T07:16:54;99959.91;;;3.61;100.00
29569;BME280;16501;51.462;14.346;2023-02-19T07:19:19;99923.66;;;3.18;100.00
29569;BME280;16501;51.462;14.346;2023-02-19T07:21:45;99977.41;;;3.57;100.00
29569;BME280;16501;51.462;14.346;2023-02-19T07:24:11;99965.69;;;3.33;100.00
29569;BME280;16501;51.462;14.346;2023-02-19T07:26:36;99979.03;;;3.38;100.00
29569;BME280;16501;51.462;14.346;2023-02-19T07:29:02;99992.41;;;3.24;100.00
29569;BME280;16501;51.462;14.346;2023-02-19T07:31:27;100022.44;;;3.45;100.00
29569;BME280;16501;51.462;14.346;2023-02-19T07:33:53;100025.63;;;3.44;100.00
29569;BME280;16501;51.462;14.346;2023-02-19T07:36:20;100019.50;;;3.16;100.00
29569;BME280;16501;51.462;14.346;2023-02-19T07:38:46;100035.88;;;3.27;100.00
29569;BME280;16501;51.462;14.346;2023-02-19T07:41:11;99985.91;;;2.94;100.00
29569;BME280;16501;51.462;14.346;2023-02-19T07:43:38;100028.78;;;3.26;100.00
29569;BME280;16501;51.462;14.346;2023-02-19T07:46:11;100067.28;;;3.40;100.00
29569;BME280;16501;51.462;14.346;2023-02-19T07:48:39;100057.06;;;3.37;100.00
29569;BME280;16501;51.462;14.346;2023-02-19T07:51:07;100073.69;;;3.37;100.00
29569;BME280;16501;51.462;14.346;2023-02-19T07:53:33;100046.97;;;3.27;100.00
29569;BME280;16501;51.462;14.346;2023-02-19T07:56:03;100074.69;;;3.27;100.00
29569;BME280;16501;51.462;14.346;2023-02-19T07:58:31;100095.44;;;3.38;100.00
29569;BME280;16501;51.462;14.346;2023-02-19T08:01:06;100090.53;;;3.26;100.00
29569;BME280;16501;51.462;14.346;2023-02-19T08:03:32;100079.69;;;3.15;100.00
29569;BME280;16501;51.462;14.346;2023-02-19T08:05:58;100083.69;;;2.91;100.00
29569;BME280;16501;51.462;14.346;2023-02-19T08:08:23;100082.22;;;2.86;100.00
29569;BME280;16501;51.462;14.346;2023-02-19T08:10:48;100102.69;;;3.12;100.00
29569;BME280;16501;51.462;14.346;2023-02-19T08:13:32;100101.19;;;3.28;100.00
29569;BME280;16501;51.462;14.346;2023-02-19T08:18:25;100121.91;;;3.39;100.00
29569;BME280;16501;51.462;14.346;2023-02-19T08:20:51;100131.25;;;3.29;100.00
29569;BME280;16501;51.462;14.346;2023-02-19T08:23:18;100122.56;;;3.07;100.00
29569;BME280;16501;51.462;14.346;2023-02-19T08:25:45;100146.59;;;3.34;100.00
29569;BME280;16501;51.462;14.346;2023-02-19T08:28:10;100154.13;;;3.33;100.00
29569;BME280;16501;51.462;14.346;2023-02-19T08:30:37;100163.91;;;3.18;100.00
29569;BME280;16501;51.462;14.346;2023-02-19T08:33:05;100149.66;;;2.96;100.00
29569;BME280;16501;51.462;14.346;2023-02-19T08:35:31;100173.53;;;2.90;100.00
29569;BME280;16501;51.462;14.346;2023-02-19T08:37:57;100153.72;;;2.91;100.00
29569;BME280;16501;51.462;14.346;2023-02-19T08:40:23;100176.94;;;3.21;100.00
29569;BME280;16501;51.462;14.346;2023-02-19T08:42:49;100176.72;;;3.32;100.00
29569;BME280;16501;51.462;14.346;2023-02-19T08:45:15;100179.97;;;3.27;100.00
29569;BME280;16501;51.462;14.346;2023-02-19T08:47:40;100176.72;;;3.32;100.00
29569;BME280;16501;51.462;14.346;2023-02-19T08:50:06;100187.09;;;3.28;100.00
29569;BME280;16501;51.462;14.346;2023-02-19T08:52:32;100132.34;;;2.92;100.00
29569;BME280;16501;51.462;14.346;2023-02-19T08:54:58;100164.59;;;3.02;100.00
29569;BME280;16501;51.462;14.346;2023-02-19T08:57:24;100210.69;;;3.36;100.00
29569;BME280;16501;51.462;14.346;2023-02-19T08:59:49;100143.91;;;2.87;100.00
29569;BME280;16501;51.462;14.346;2023-02-19T09:02:15;100201.44;;;3.23;100.00
29569;BME280;16501;51.462;14.346;2023-02-19T09:04:40;100213.09;;;3.34;100.00
29569;BME280;16501;51.462;14.346;2023-02-19T09:07:05;100213.78;;;3.42;100.00
29569;BME280;16501;51.462;14.346;2023-02-19T09:09:35;100236.44;;;3.56;100.00
29569;BME280;16501;51.462;14.346;2023-02-19T09:12:03;100211.00;;;3.42;100.00
29569;BME280;16501;51.462;14.346;2023-02-19T09:14:31;100257.63;;;3.67;100.00
29569;BME280;16501;51.462;14.346;2023-02-19T09:16:57;100238.38;;;3.59;100.00
29569;BME280;16501;51.462;14.346;2023-02-19T09:19:22;100267.34;;;3.55;100.00
29569;BME280;16501;51.462;14.346;2023-02-19T09:21:47;100268.34;;;3.45;100.00
29569;BME280;16501;51.462;14.346;2023-02-19T09:24:14;100259.47;;;3.53;100.00
29569;BME280;16501;51.462;14.346;2023-02-19T09:26:39;100268.66;;;3.70;100.00
29569;BME280;16501;51.462;14.346;2023-02-19T09:29:04;100270.88;;;3.79;100.00
29569;BME280;16501;51.462;14.346;2023-02-19T09:31:30;100271.28;;;3.77;100.00
29569;BME280;16501;51.462;14.346;2023-02-19T09:34:00;100236.78;;;3.38;100.00
29569;BME280;16501;51.462;14.346;2023-02-19T09:36:25;100267.88;;;3.70;100.00
29569;BME280;16501;51.462;14.346;2023-02-19T09:38:51;100281.88;;;3.83;100.00
29569;BME280;16501;51.462;14.346;2023-02-19T09:41:34;100277.69;;;3.94;100.00
29569;BME280;16501;51.462;14.346;2023-02-19T09:44:02;100280.13;;;3.92;100.00
29569;BME280;16501;51.462;14.346;2023-02-19T09:46:41;100290.13;;;3.86;100.00
29569;BME280;16501;51.462;14.346;2023-02-19T09:54:44;100279.13;;;3.83;100.00
29569;BME280;16501;51.462;14.346;2023-02-19T09:57:14;100297.19;;;3.91;100.00
29569;BME280;16501;51.462;14.346;2023-02-19T09:59:49;100316.34;;;3.85;100.00
29569;BME280;16501;51.462;14.346;2023-02-19T10:02:20;100322.94;;;3.91;100.00
29569;BME280;16501;51.462;14.346;2023-02-19T10:04:48;100324.03;;;3.97;100.00
29569;BME280;16501;51.462;14.346;2023-02-19T10:07:19;100318.59;;;4.10;100.00
29569;BME280;16501;51.462;14.346;2023-02-19T10:09:55;100335.63;;;4.32;100.00
29569;BME280;16501;51.462;14.346;2023-02-19T10:12:30;100335.69;;;4.29;100.00
29569;BME280;16501;51.462;14.346;2023-02-19T10:15:08;100321.59;;;4.00;100.00
29569;BME280;16501;51.462;14.346;2023-02-19T10:17:35;100345.97;;;3.88;100.00
29569;BME280;16501;51.462;14.346;2023-02-19T10:20:02;100339.78;;;3.81;100.00
29569;BME280;16501;51.462;14.346;2023-02-19T10:22:29;100355.47;;;4.31;100.00
29569;BME280;16501;51.462;14.346;2023-02-19T10:24:57;100351.34;;;4.19;100.00
29569;BME280;16501;51.462;14.346;2023-02-19T10:27:28;100372.59;;;4.06;100.00
29569;BME280;16501;51.462;14.346;2023-02-19T10:29:55;100367.22;;;4.19;100.00
29569;BME280;16501;51.462;14.346;2023-02-19T10:32:23;100362.66;;;4.48;100.00
29569;BME280;16501;51.462;14.346;2023-02-19T10:35:13;100362.66;;;4.48;100.00
29569;BME280;16501;51.462;14.346;2023-02-19T10:37:46;100339.34;;;4.62;100.00
29569;BME280;16501;51.462;14.346;2023-02-19T10:40:24;100330.66;;;4.97;100.00
29569;BME280;16501;51.462;14.346;2023-02-19T10:43:00;100379.56;;;5.27;100.00
29569;BME280;16501;51.462;14.346;2023-02-19T10:45:39;100380.16;;;5.18;100.00
29569;BME280;16501;51.462;14.346;2023-02-19T10:48:21;100388.84;;;5.04;100.00
29569;BME280;16501;51.462;14.346;2023-02-19T10:50:52;100384.31;;;5.10;100.00
29569;BME280;16501;51.462;14.346;2023-02-19T10:53:33;100391.28;;;5.02;100.00
29569;BME280;16501;51.462;14.346;2023-02-19T10:56:26;100396.75;;;5.05;100.00
29569;BME280;16501;51.462;14.346;2023-02-19T10:58:54;100382.13;;;5.01;100.00
29569;BME280;16501;51.462;14.346;2023-02-19T11:01:23;100409.81;;;5.25;100.00
29569;BME280;16501;51.462;14.346;2023-02-19T11:07:17;100418.06;;;5.45;100.00
29569;BME280;16501;51.462;14.346;2023-02-19T11:09:44;100416.84;;;5.62;100.00
29569;BME280;16501;51.462;14.346;2023-02-19T11:12:22;100379.56;;;5.27;100.00
29569;BME280;16501;51.462;14.346;2023-02-19T11:14:48;100413.94;;;5.17;100.00
29569;BME280;16501;51.462;14.346;2023-02-19T11:17:26;100436.69;;;5.12;100.00
29569;BME280;16501;51.462;14.346;2023-02-19T11:19:57;100421.94;;;5.15;100.00
29569;BME280;16501;51.462;14.346;2023-02-19T11:22:36;100422.13;;;5.07;99.33
29569;BME280;16501;51.462;14.346;2023-02-19T11:27:35;100418.41;;;5.14;97.43
29569;BME280;16501;51.462;14.346;2023-02-19T11:30:32;100449.06;;;5.27;100.00
29569;BME280;16501;51.462;14.346;2023-02-19T11:35:41;100437.94;;;5.10;100.00
29569;BME280;16501;51.462;14.346;2023-02-19T11:38:08;100438.78;;;5.07;100.00
29569;BME280;16501;51.462;14.346;2023-02-19T11:40:58;100446.78;;;5.05;98.14
29569;BME280;16501;51.462;14.346;2023-02-19T11:43:51;100456.41;;;5.01;98.89
29569;BME280;16501;51.462;14.346;2023-02-19T11:55:17;100464.84;;;5.14;98.59
29569;BME280;16501;51.462;14.346;2023-02-19T11:57:47;100465.59;;;4.98;93.27
29569;BME280;16501;51.462;14.346;2023-02-19T12:00:30;100414.25;;;4.66;97.27
29569;BME280;16501;51.462;14.346;2023-02-19T12:06:38;100475.34;;;5.06;98.20
29569;BME280;16501;51.462;14.346;2023-02-19T12:09:16;100487.19;;;4.90;94.38
29569;BME280;16501;51.462;14.346;2023-02-19T12:20:42;100497.75;;;5.35;98.02
29569;BME280;16501;51.462;14.346;2023-02-19T12:34:07;100502.16;;;6.35;90.95
29569;BME280;16501;51.462;14.346;2023-02-19T12:36:57;100506.13;;;6.50;88.87
29569;BME280;16501;51.462;14.346;2023-02-19T12:50:48;100481.47;;;6.19;87.00
29569;BME280;16501;51.462;14.346;2023-02-19T12:53:30;100477.91;;;6.19;82.08
29569;BME280;16501;51.462;14.346;2023-02-19T12:55:58;100481.59;;;6.29;81.21
29569;BME280;16501;51.462;14.346;2023-02-19T12:58:31;100465.28;;;6.31;80.63
29569;BME280;16501;51.462;14.346;2023-02-19T13:00:59;100490.53;;;6.07;79.52
29569;BME280;16501;51.462;14.346;2023-02-19T13:03:32;100499.69;;;6.37;79.97
29569;BME280;16501;51.462;14.346;2023-02-19T13:09:10;100478.66;;;6.36;75.23
29569;BME280;16501;51.462;14.346;2023-02-19T13:11:48;100510.41;;;6.55;75.00
29569;BME280;16501;51.462;14.346;2023-02-19T13:16:59;100504.75;;;6.71;73.43
29569;BME280;16501;51.462;14.346;2023-02-19T13:19:25;100514.28;;;6.57;72.83
29569;BME280;16501;51.462;14.346;2023-02-19T13:22:04;100488.09;;;6.55;73.73
29569;BME280;16501;51.462;14.346;2023-02-19T13:24:55;100502.50;;;6.66;72.17
29569;BME280;16501;51.462;14.346;2023-02-19T13:27:46;100520.53;;;6.91;71.77
29569;BME280;16501;51.462;14.346;2023-02-19T13:30:36;100534.88;;;7.06;71.92
29569;BME280;16501;51.462;14.346;2023-02-19T13:36:15;100520.97;;;6.89;71.63
29569;BME280;16501;51.462;14.346;2023-02-19T13:38:45;100537.25;;;6.61;70.85
29569;BME280;16501;51.462;14.346;2023-02-19T13:41:25;100529.72;;;6.46;71.37
29569;BME280;16501;51.462;14.346;2023-02-19T13:44:02;100525.38;;;6.45;71.92
29569;BME280;16501;51.462;14.346;2023-02-19T13:46:34;100510.94;;;6.33;67.26
29569;BME280;16501;51.462;14.346;2023-02-19T13:52:32;100552.19;;;6.84;64.46
29569;BME280;16501;51.462;14.346;2023-02-19T13:54:48;100543.97;;;6.64;63.86
29569;BME280;16501;51.462;14.346;2023-02-19T13:59:49;100559.44;;;6.36;62.44
29569;BME280;16501;51.462;14.346;2023-02-19T14:02:31;100558.38;;;6.30;63.10
29569;BME280;16501;51.462;14.346;2023-02-19T14:05:07;100573.25;;;6.07;65.31
29569;BME280;16501;51.462;14.346;2023-02-19T14:07:37;100566.75;;;6.13;63.04
29569;BME280;16501;51.462;14.346;2023-02-19T14:10:13;100569.63;;;6.10;64.98
29569;BME280;16501;51.462;14.346;2023-02-19T14:12:57;100556.03;;;5.59;63.95
29569;BME280;16501;51.462;14.346;2023-02-19T14:18:00;100534.66;;;5.72;63.46
29569;BME280;16501;51.462;14.346;2023-02-19T14:20:40;100541.28;;;5.78;64.42
29569;BME280;16501;51.462;14.346;2023-02-19T14:23:19;100562.31;;;5.99;65.85
29569;BME280;16501;51.462;14.346;2023-02-19T14:25:52;100556.16;;;5.88;62.38
29569;BME280;16501;51.462;14.346;2023-02-19T14:28:45;100582.91;;;6.02;63.71
29569;BME280;16501;51.462;14.346;2023-02-19T14:31:18;100565.59;;;6.11;62.26
29569;BME280;16501;51.462;14.346;2023-02-19T14:33:48;100543.59;;;6.00;61.58
29569;BME280;16501;51.462;14.346;2023-02-19T14:39:13;100593.00;;;6.12;62.18
29569;BME280;16501;51.462;14.346;2023-02-19T14:41:44;100589.09;;;6.10;62.77
29569;BME280;16501;51.462;14.346;2023-02-19T14:44:17;100575.31;;;6.02;61.83